createdAt,value
2023-01-11T00:02:00.616Z,71.18
2023-01-11T00:05:49.799Z,70.80
2023-01-11T00:09:38.899Z,71.18
2023-01-11T00:13:27.936Z,71.03
2023-01-11T00:17:17.002Z,70.33
2023-01-11T00:21:06.213Z,71.15
2023-01-11T00:24:55.289Z,70.48
2023-01-11T00:28:44.398Z,70.61
2023-01-11T00:32:33.445Z,71.31
2023-01-11T00:36:22.611Z,71.24
2023-01-11T00:40:11.671Z,71.01
2023-01-11T00:43:59.368Z,69.86
2023-01-11T00:47:52.751Z,69.48
2023-01-11T00:51:41.859Z,70.42
2023-01-11T00:55:30.943Z,70.06
2023-01-11T00:59:20.039Z,69.52
2023-01-11T01:03:09.120Z,69.90
2023-01-11T01:06:58.438Z,69.07
2023-01-11T01:10:47.732Z,68.96
2023-01-11T01:14:48.980Z,69.08
2023-01-11T01:18:38.083Z,69.88
2023-01-11T01:22:27.183Z,69.62
2023-01-11T01:26:16.347Z,69.49
2023-01-11T01:30:05.432Z,68.85
2023-01-11T01:33:54.486Z,68.54
2023-01-11T01:37:46.223Z,69.17
2023-01-11T01:41:35.285Z,67.82
2023-01-11T01:45:29.447Z,68.28
2023-01-11T01:49:18.583Z,68.38
2023-01-11T01:53:07.621Z,68.89
2023-01-11T01:56:56.700Z,69.26
2023-01-11T02:00:45.974Z,68.62
2023-01-11T02:04:35.055Z,68.20
2023-01-11T02:08:24.237Z,68.13
2023-01-11T02:12:13.259Z,67.97
2023-01-11T02:16:02.392Z,68.02
2023-01-11T02:19:51.482Z,68.44
2023-01-11T02:23:55.709Z,68.03
2023-01-11T02:27:46.290Z,68.17
2023-01-11T02:31:53.671Z,67.49
2023-01-11T02:36:01.362Z,67.32
2023-01-11T02:40:11.481Z,67.56
2023-01-11T02:44:20.101Z,67.57
2023-01-11T02:48:18.129Z,67.08
2023-01-11T02:52:07.205Z,65.32
2023-01-11T02:55:56.303Z,65.37
2023-01-11T02:59:45.382Z,65.92
2023-01-11T03:03:46.397Z,65.55
2023-01-11T03:07:35.450Z,65.02
2023-01-11T03:11:27.340Z,65.27
2023-01-11T03:15:22.416Z,66.08
2023-01-11T03:19:17.242Z,65.31
2023-01-11T03:23:12.118Z,64.63
2023-01-11T03:27:01.207Z,65.18
2023-01-11T03:30:53.337Z,64.75
2023-01-11T03:34:57.359Z,66.18
2023-01-11T03:39:01.896Z,65.82
2023-01-11T03:42:51.007Z,65.56
2023-01-11T03:46:45.775Z,65.50
2023-01-11T03:50:43.677Z,66.01
2023-01-11T03:54:32.718Z,66.61
2023-01-11T03:58:21.815Z,66.46
2023-01-11T04:02:10.894Z,66.54
2023-01-11T04:06:00.050Z,66.89
2023-01-11T04:09:49.155Z,66.83
2023-01-11T04:13:38.231Z,67.18
2023-01-11T04:17:27.259Z,66.74
2023-01-11T04:21:16.323Z,67.29
2023-01-11T04:25:05.454Z,66.99
2023-01-11T04:28:54.638Z,66.77
2023-01-11T04:32:43.701Z,66.64
2023-01-11T04:36:32.763Z,66.71
2023-01-11T04:40:14.350Z,66.12
2023-01-11T04:44:03.600Z,66.74
2023-01-11T04:47:52.696Z,66.94
2023-01-11T04:51:41.853Z,66.86
2023-01-11T04:55:30.948Z,66.51
2023-01-11T04:59:20.003Z,67.23
2023-01-11T05:03:09.122Z,66.36
2023-01-11T05:06:58.212Z,66.44
2023-01-11T05:10:47.352Z,66.82
2023-01-11T05:14:36.605Z,66.78
2023-01-11T05:18:25.657Z,66.62
2023-01-11T05:22:13.594Z,67.30
2023-01-11T05:26:02.715Z,67.52
2023-01-11T05:29:44.817Z,67.70
2023-01-11T05:33:33.947Z,67.37
2023-01-11T05:37:23.104Z,66.91
2023-01-11T05:41:12.474Z,66.56
2023-01-11T05:45:00.298Z,66.34
2023-01-11T05:48:49.399Z,65.87
2023-01-11T05:52:38.447Z,66.60
2023-01-11T05:56:36.417Z,66.94
2023-01-11T06:00:25.472Z,67.09
2023-01-11T06:04:14.552Z,66.49
2023-01-11T06:08:03.635Z,66.66
2023-01-11T06:11:52.719Z,64.81
2023-01-11T06:15:41.797Z,65.35
2023-01-11T06:19:30.918Z,64.97
2023-01-11T06:23:20.033Z,64.95
2023-01-11T06:27:09.142Z,64.40
2023-01-11T06:30:58.330Z,64.59
2023-01-11T06:34:47.422Z,64.53
2023-01-11T06:38:36.618Z,65.98
2023-01-11T06:42:25.686Z,65.90
2023-01-11T06:46:14.932Z,65.62
2023-01-11T06:50:04.043Z,66.10
2023-01-11T06:53:55.971Z,66.00
2023-01-11T06:57:45.038Z,65.63
2023-01-11T07:01:34.139Z,65.54
2023-01-11T07:05:23.569Z,66.40
2023-01-11T07:09:12.658Z,66.53
2023-01-11T07:13:01.688Z,66.48
2023-01-11T07:16:50.821Z,65.24
2023-01-11T07:20:39.900Z,64.52
2023-01-11T07:24:28.946Z,63.23
2023-01-11T07:28:18.038Z,62.66
2023-01-11T07:32:07.118Z,63.07
2023-01-11T07:35:56.277Z,64.12
2023-01-11T07:39:45.412Z,63.17
2023-01-11T07:43:37.270Z,61.49
2023-01-11T07:47:26.461Z,61.67
2023-01-11T07:51:15.662Z,61.90
2023-01-11T07:55:04.746Z,61.41
2023-01-11T07:58:53.815Z,60.97
2023-01-11T08:02:43.043Z,61.91
2023-01-11T08:06:32.214Z,60.63
2023-01-11T08:10:21.283Z,61.56
2023-01-11T08:14:09.027Z,60.36
2023-01-11T08:17:58.221Z,60.52
2023-01-11T08:21:47.308Z,61.15
2023-01-11T08:25:36.397Z,61.32
2023-01-11T08:29:24.565Z,62.14
2023-01-11T08:33:14.005Z,61.65
2023-01-11T08:37:05.877Z,61.97
2023-01-11T08:40:55.001Z,60.65
2023-01-11T08:44:38.197Z,62.52
2023-01-11T08:48:27.638Z,62.82
2023-01-11T08:52:16.701Z,62.93
2023-01-11T08:56:05.894Z,62.98
2023-01-11T08:59:54.980Z,63.28
2023-01-11T09:03:44.058Z,62.91
2023-01-11T09:07:33.209Z,61.22
2023-01-11T09:11:22.268Z,62.04
2023-01-11T09:15:11.326Z,61.72
2023-01-11T09:19:00.556Z,61.32
2023-01-11T09:22:52.600Z,60.37
2023-01-11T09:26:41.952Z,59.59
2023-01-11T09:30:23.403Z,61.85
2023-01-11T09:34:12.467Z,61.06
2023-01-11T09:38:01.564Z,60.43
2023-01-11T09:41:49.069Z,60.72
2023-01-11T09:45:40.879Z,62.08
2023-01-11T09:49:33.063Z,60.93
2023-01-11T09:53:31.190Z,61.52
2023-01-11T09:57:23.001Z,60.64
2023-01-11T10:01:12.236Z,61.16
2023-01-11T10:05:18.207Z,60.36
2023-01-11T10:18:40.119Z,60.16
2023-01-11T10:22:10.301Z,60.43
2023-01-11T10:26:11.400Z,60.10
2023-01-11T10:30:02.999Z,59.82
2023-01-11T10:33:58.033Z,60.85
2023-01-11T10:38:11.163Z,60.40
2023-01-11T10:42:00.286Z,59.92
2023-01-11T10:50:10.154Z,59.68
2023-01-11T10:58:02.335Z,60.35
2023-01-11T11:02:08.067Z,59.89
2023-01-11T11:06:24.926Z,59.69
2023-01-11T11:10:20.241Z,59.80
2023-01-11T11:14:23.265Z,60.54
2023-01-11T11:18:24.415Z,61.32
2023-01-11T11:22:22.531Z,61.21
2023-01-11T11:26:17.334Z,61.20
2023-01-11T11:30:06.464Z,60.67
2023-01-11T11:33:55.571Z,61.31
2023-01-11T11:37:44.417Z,60.66
2023-01-11T11:41:48.555Z,61.03
2023-01-11T11:45:49.683Z,59.81
2023-01-11T11:49:51.180Z,59.36
2023-01-11T11:53:43.211Z,59.85
2023-01-11T11:57:35.097Z,59.61
2023-01-11T12:01:19.519Z,59.78
2023-01-11T12:05:18.400Z,59.10
2023-01-11T12:09:07.516Z,58.46
2023-01-11T12:12:56.664Z,59.60
2023-01-11T12:16:45.856Z,60.17
2023-01-11T12:20:34.985Z,58.45
2023-01-11T12:24:16.757Z,58.33
2023-01-11T12:28:11.617Z,58.27
2023-01-11T12:32:16.136Z,57.80
2023-01-11T12:36:29.683Z,56.70
2023-01-11T12:40:21.765Z,58.32
2023-01-11T12:44:22.759Z,56.98
2023-01-11T12:48:09.214Z,57.12
2023-01-11T12:51:55.911Z,57.71
2023-01-11T12:55:24.657Z,58.25
2023-01-11T12:59:19.423Z,57.68
2023-01-11T13:03:11.316Z,58.65
2023-01-11T13:07:09.392Z,59.04
2023-01-11T13:11:10.581Z,58.75
2023-01-11T13:15:08.617Z,59.15
2023-01-11T13:19:06.790Z,59.66
2023-01-11T13:22:55.876Z,59.76
2023-01-11T13:26:38.684Z,60.04
2023-01-11T13:30:30.584Z,60.43
2023-01-11T13:34:19.663Z,59.89
2023-01-11T13:38:08.762Z,60.49
2023-01-11T13:42:02.681Z,60.40
2023-01-11T13:46:06.967Z,60.95
2023-01-11T13:49:58.712Z,60.69
2023-01-11T13:53:59.333Z,61.00
2023-01-11T13:57:47.339Z,61.38
2023-01-11T14:01:39.434Z,61.72
2023-01-11T14:05:31.534Z,61.52
2023-01-11T14:09:23.427Z,61.73
2023-01-11T14:13:27.997Z,61.95
2023-01-11T14:17:17.041Z,61.81
2023-01-11T14:21:15.227Z,62.11
2023-01-11T14:25:04.313Z,62.20
2023-01-11T14:28:56.181Z,62.41
2023-01-11T14:32:54.138Z,62.40
2023-01-11T14:36:49.308Z,62.36
2023-01-11T14:40:44.210Z,62.76
2023-01-11T14:44:41.511Z,62.79
2023-01-11T14:48:48.233Z,63.16
2023-01-11T14:52:46.723Z,63.08
2023-01-11T14:56:35.803Z,63.05
2023-01-11T15:00:24.872Z,63.72
2023-01-11T15:04:13.942Z,64.03
2023-01-11T15:08:11.998Z,64.55
2023-01-11T15:12:01.132Z,64.48
2023-01-11T15:15:51.551Z,64.27
2023-01-11T15:19:40.638Z,64.26
2023-01-11T15:23:38.576Z,64.25
2023-01-11T15:27:27.665Z,64.69
2023-01-11T15:31:19.609Z,64.90
2023-01-11T15:35:24.065Z,64.89
2023-01-11T15:39:28.101Z,65.38
2023-01-11T15:43:28.823Z,65.94
2023-01-11T15:47:15.263Z,66.05
2023-01-11T15:51:07.096Z,65.82
2023-01-11T15:55:05.139Z,66.09
2023-01-11T15:59:08.454Z,66.05
2023-01-11T16:03:14.444Z,66.35
2023-01-11T16:07:03.504Z,66.48
2023-01-11T16:11:10.566Z,67.16
2023-01-11T16:14:59.649Z,67.18
2023-01-11T16:18:51.410Z,67.08
2023-01-11T16:22:40.463Z,67.13
2023-01-11T16:26:29.556Z,66.99
2023-01-11T16:30:18.621Z,67.05
2023-01-11T16:34:22.865Z,67.55
2023-01-11T16:38:20.777Z,67.97
2023-01-11T16:42:09.878Z,68.05
2023-01-11T16:46:01.553Z,68.11
2023-01-11T16:49:50.738Z,68.48
2023-01-11T16:53:54.798Z,69.02
2023-01-11T16:57:43.913Z,68.65
2023-01-11T17:01:33.041Z,68.68
2023-01-11T17:05:40.522Z,69.24
2023-01-11T17:09:35.435Z,69.19
2023-01-11T17:13:27.360Z,69.17
2023-01-11T17:17:22.135Z,69.77
2023-01-11T17:21:20.308Z,69.10
2023-01-11T17:25:09.379Z,70.78
2023-01-11T17:28:58.470Z,70.49
2023-01-11T17:32:47.564Z,70.09
2023-01-11T17:36:36.637Z,70.00
2023-01-11T17:40:25.724Z,70.45
2023-01-11T17:44:23.337Z,70.42
2023-01-11T17:48:12.422Z,70.47
2023-01-11T17:52:07.302Z,70.98
2023-01-11T17:56:02.443Z,70.90
2023-01-11T18:00:00.269Z,70.84
2023-01-11T18:03:49.313Z,71.56
2023-01-11T18:07:56.719Z,71.05
2023-01-11T18:11:45.840Z,73.69
2023-01-11T18:15:34.944Z,72.02
2023-01-11T18:19:25.979Z,72.18
2023-01-11T18:23:39.495Z,72.03
2023-01-11T18:27:28.537Z,71.80
2023-01-11T18:31:32.811Z,71.90
2023-01-11T18:35:21.903Z,71.85
2023-01-11T18:39:20.225Z,71.78
2023-01-11T18:43:09.350Z,72.65
2023-01-11T18:46:58.407Z,72.31
2023-01-11T18:50:47.594Z,72.21
2023-01-11T18:54:37.776Z,72.31
2023-01-11T18:58:26.852Z,72.70
2023-01-11T19:02:17.625Z,72.67
2023-01-11T19:06:07.436Z,72.31
2023-01-11T19:09:56.708Z,72.64
2023-01-11T19:13:46.863Z,72.62
2023-01-11T19:17:36.371Z,72.63
2023-01-11T19:21:25.467Z,72.44
2023-01-11T19:25:14.480Z,72.10
2023-01-11T19:29:03.558Z,72.13
2023-01-11T19:32:52.774Z,72.05
2023-01-11T19:36:41.868Z,72.39
2023-01-11T19:40:31.096Z,72.68
2023-01-11T19:44:20.178Z,72.68
2023-01-11T19:48:08.976Z,72.63
2023-01-11T19:52:06.982Z,72.55
2023-01-11T19:55:56.087Z,72.32
2023-01-11T19:59:45.200Z,73.15
2023-01-11T20:03:34.308Z,73.28
2023-01-11T20:07:23.344Z,73.05
2023-01-11T20:11:12.416Z,73.08
2023-01-11T20:15:01.504Z,73.08
2023-01-11T20:18:50.556Z,73.09
2023-01-11T20:22:39.618Z,73.05
2023-01-11T20:26:28.700Z,72.88
2023-01-11T20:30:17.787Z,73.53
2023-01-11T20:34:06.843Z,73.21
2023-01-11T20:37:55.979Z,73.31
2023-01-11T20:41:46.207Z,73.32
2023-01-11T20:45:35.258Z,74.46
2023-01-11T20:49:24.307Z,73.82
2023-01-11T20:53:13.444Z,74.01
2023-01-11T20:57:03.610Z,73.94
2023-01-11T21:00:52.739Z,74.62
2023-01-11T21:04:41.882Z,74.20
2023-01-11T21:08:30.996Z,73.87
2023-01-11T21:12:20.186Z,73.76
2023-01-11T21:16:09.353Z,73.67
2023-01-11T21:19:58.411Z,74.38
2023-01-11T21:23:47.469Z,74.04
2023-01-11T21:27:36.556Z,73.96
2023-01-11T21:31:25.715Z,75.30
2023-01-11T21:35:14.880Z,74.41
2023-01-11T21:39:03.999Z,73.68
2023-01-11T21:42:53.516Z,73.94
2023-01-11T21:46:42.705Z,74.37
2023-01-11T21:50:31.823Z,74.32
2023-01-11T21:54:20.913Z,74.20
2023-01-11T21:58:09.995Z,74.33
2023-01-11T22:01:59.039Z,74.13
2023-01-11T22:05:48.350Z,74.23
2023-01-11T22:09:37.587Z,74.59
2023-01-11T22:13:26.740Z,74.48
2023-01-11T22:17:15.944Z,74.63
2023-01-11T22:21:05.194Z,74.38
2023-01-11T22:24:54.310Z,74.72
2023-01-11T22:28:43.357Z,74.62
2023-01-11T22:32:32.455Z,75.28
2023-01-11T22:36:21.538Z,75.06
2023-01-11T22:40:10.631Z,74.73
2023-01-11T22:43:59.785Z,75.41
2023-01-11T22:47:48.869Z,75.11
2023-01-11T22:51:37.910Z,74.90
2023-01-11T22:55:27.008Z,75.16
2023-01-11T22:59:16.102Z,75.26
2023-01-11T23:03:05.329Z,75.47
2023-01-11T23:06:54.475Z,75.33
2023-01-11T23:10:43.514Z,75.02
2023-01-11T23:14:32.812Z,75.06
2023-01-11T23:18:22.056Z,75.00
2023-01-11T23:22:11.151Z,75.35
2023-01-11T23:26:00.203Z,75.84
2023-01-11T23:29:49.279Z,75.55
2023-01-11T23:33:38.343Z,75.00
2023-01-11T23:37:27.454Z,74.84
2023-01-11T23:41:15.227Z,75.61
2023-01-11T23:45:07.201Z,75.31
2023-01-11T23:48:56.319Z,75.38
2023-01-11T23:52:45.405Z,75.14
2023-01-11T23:56:34.568Z,74.85
